AFL208 UUEE-ZSPD
Flight info
| Callsign | AFL208 |
|---|---|
| Flight time | N/A |
| Altitude | 33000 |
| Route | OLMUN3J OLMUN T629 IPSIL T830 LAMGU N604 OGSIN P983 DIGTU/K0889F350 P983 TINRI T448 RUBOR A300 ML A308 KD A575 DARNO/K0882S1070 Y746 ENGUG/K0902S1130 Y746 NIXAL G343 TMR B458 BIKUT W69 HUR B339 SOTMU/K0895S1100 W98 ELKUR W40 DOXAB/K0891S1130 W40 YQG/K0889S1160 W142 DALIM/K0893S1130 A593 VMB W161 SASAN SAS82A |
| Aircraft | B77W/H-SDE1E2E3FGHIJ2J3J4J5M1RWXY/LB1D1 |
Departure
| Time | 2026-05-06 10:21 |
|---|---|
| Airport | Sheremetyevo International Airport (UUEE) |
Arrival
| Time | N/A |
|---|---|
| Airport | Shanghai Pudong International Airport (ZSPD) |
| Time | Latitude | Longitude | Altitude | Speed | Heading |
|---|---|---|---|---|---|
| 2026-05-06 09:09 | 55.97697 | 37.41116 | 644 ft | 0 kts | 355° |
| 2026-05-06 09:31 | 55.97697 | 37.41117 | 644 ft | 0 kts | 355° |
| 2026-05-06 09:33 | 55.97697 | 37.41116 | 644 ft | 0 kts | 355° |
| 2026-05-06 09:33 | 55.97697 | 37.41117 | 644 ft | 0 kts | 355° |
| 2026-05-06 10:06 | 55.97680 | 37.41120 | 645 ft | 4 kts | 355° |
| 2026-05-06 10:06 | 55.97653 | 37.41124 | 647 ft | 4 kts | 355° |
| 2026-05-06 10:06 | 55.97631 | 37.41128 | 647 ft | 4 kts | 351° |
| 2026-05-06 10:06 | 55.97621 | 37.41129 | 649 ft | 4 kts | 300° |
| 2026-05-06 10:07 | 55.97619 | 37.41144 | 647 ft | 4 kts | 251° |
| 2026-05-06 10:07 | 55.97629 | 37.41185 | 645 ft | 4 kts | 248° |
| 2026-05-06 10:07 | 55.97638 | 37.41230 | 648 ft | 4 kts | 253° |
| 2026-05-06 10:07 | 55.97645 | 37.41276 | 644 ft | 4 kts | 258° |
| 2026-05-06 10:08 | 55.97650 | 37.41324 | 647 ft | 4 kts | 262° |
| 2026-05-06 10:08 | 55.97653 | 37.41371 | 644 ft | 4 kts | 260° |
| 2026-05-06 10:08 | 55.97656 | 37.41395 | 645 ft | 2 kts | 256° |
| 2026-05-06 10:12 | 55.97653 | 37.41373 | 644 ft | 1 kts | 256° |
| 2026-05-06 10:12 | 55.97643 | 37.41303 | 646 ft | 10 kts | 256° |
| 2026-05-06 10:12 | 55.97627 | 37.41203 | 650 ft | 5 kts | 245° |
| 2026-05-06 10:12 | 55.97597 | 37.41159 | 650 ft | 10 kts | 197° |
| 2026-05-06 10:13 | 55.97552 | 37.41220 | 648 ft | 11 kts | 104° |
| 2026-05-06 10:13 | 55.97561 | 37.41361 | 647 ft | 3 kts | 76° |
| 2026-05-06 10:13 | 55.97569 | 37.41411 | 645 ft | 9 kts | 75° |
| 2026-05-06 10:13 | 55.97586 | 37.41532 | 645 ft | 10 kts | 73° |
| 2026-05-06 10:14 | 55.97605 | 37.41654 | 650 ft | 10 kts | 75° |
| 2026-05-06 10:14 | 55.97623 | 37.41776 | 648 ft | 10 kts | 75° |
| 2026-05-06 10:14 | 55.97641 | 37.41898 | 648 ft | 10 kts | 75° |
| 2026-05-06 10:14 | 55.97660 | 37.42019 | 646 ft | 10 kts | 75° |
| 2026-05-06 10:15 | 55.97678 | 37.42142 | 648 ft | 10 kts | 75° |
| 2026-05-06 10:15 | 55.97696 | 37.42264 | 646 ft | 10 kts | 75° |
| 2026-05-06 10:15 | 55.97714 | 37.42386 | 648 ft | 11 kts | 75° |
| 2026-05-06 10:15 | 55.97735 | 37.42526 | 647 ft | 13 kts | 75° |
| 2026-05-06 10:16 | 55.97760 | 37.42695 | 647 ft | 15 kts | 75° |
| 2026-05-06 10:16 | 55.97778 | 37.42811 | 649 ft | 10 kts | 75° |
| 2026-05-06 10:16 | 55.97797 | 37.42942 | 647 ft | 12 kts | 75° |
| 2026-05-06 10:16 | 55.97821 | 37.43100 | 647 ft | 14 kts | 75° |
| 2026-05-06 10:17 | 55.97848 | 37.43276 | 646 ft | 16 kts | 75° |
| 2026-05-06 10:17 | 55.97874 | 37.43452 | 645 ft | 15 kts | 75° |
| 2026-05-06 10:17 | 55.97896 | 37.43598 | 649 ft | 7 kts | 75° |
| 2026-05-06 10:17 | 55.97909 | 37.43685 | 649 ft | 7 kts | 75° |
| 2026-05-06 10:18 | 55.97923 | 37.43782 | 649 ft | 9 kts | 75° |
| 2026-05-06 10:18 | 55.97939 | 37.43887 | 649 ft | 9 kts | 75° |
| 2026-05-06 10:18 | 55.97938 | 37.43992 | 648 ft | 9 kts | 121° |
| 2026-05-06 10:18 | 55.97886 | 37.44049 | 648 ft | 9 kts | 161° |
| 2026-05-06 10:19 | 55.97834 | 37.44075 | 647 ft | 8 kts | 168° |
| 2026-05-06 10:19 | 55.97789 | 37.44036 | 649 ft | 8 kts | 234° |
| 2026-05-06 10:19 | 55.97771 | 37.43947 | 647 ft | 8 kts | 253° |
| 2026-05-06 10:19 | 55.97765 | 37.43907 | 647 ft | 0 kts | 255° |
| 2026-05-06 10:20 | 55.97763 | 37.43894 | 649 ft | 7 kts | 255° |
| 2026-05-06 10:20 | 55.97685 | 37.43368 | 648 ft | 89 kts | 255° |
| 2026-05-06 10:21 | 55.97471 | 37.41930 | 648 ft | 150 kts | 255° |
| 2026-05-06 10:21 | 55.97176 | 37.39873 | 766 ft | 183 kts | 256° |
| 2026-05-06 10:21 | 55.96759 | 37.37696 | 1252 ft | 187 kts | 246° |
| 2026-05-06 10:21 | 55.96102 | 37.35748 | 2057 ft | 176 kts | 237° |
| 2026-05-06 10:22 | 55.95381 | 37.34001 | 2820 ft | 178 kts | 236° |
| 2026-05-06 10:22 | 55.94624 | 37.32105 | 3199 ft | 196 kts | 238° |
| 2026-05-06 10:22 | 55.93831 | 37.30077 | 3765 ft | 205 kts | 237° |
| 2026-05-06 10:22 | 55.92965 | 37.27868 | 4007 ft | 227 kts | 237° |
| 2026-05-06 10:23 | 55.92023 | 37.25461 | 3978 ft | 242 kts | 237° |
| 2026-05-06 10:23 | 55.91042 | 37.23036 | 4158 ft | 240 kts | 231° |
| 2026-05-06 10:23 | 55.89630 | 37.21345 | 4746 ft | 253 kts | 203° |
| 2026-05-06 10:23 | 55.87882 | 37.20924 | 5507 ft | 260 kts | 180° |
| 2026-05-06 10:24 | 55.86123 | 37.21857 | 6119 ft | 274 kts | 152° |
| 2026-05-06 10:24 | 55.84686 | 37.24253 | 6610 ft | 289 kts | 123° |
| 2026-05-06 10:24 | 55.84060 | 37.27600 | 7011 ft | 296 kts | 93° |
| 2026-05-06 10:24 | 55.84475 | 37.31244 | 7303 ft | 304 kts | 58° |
| 2026-05-06 10:25 | 55.85729 | 37.34251 | 7728 ft | 305 kts | 46° |
| 2026-05-06 10:25 | 55.87119 | 37.37153 | 8322 ft | 309 kts | 46° |
| 2026-05-06 10:25 | 55.88507 | 37.40076 | 8911 ft | 311 kts | 46° |
| 2026-05-06 10:25 | 55.89902 | 37.43062 | 9012 ft | 316 kts | 47° |
| 2026-05-06 10:26 | 55.91306 | 37.46098 | 9016 ft | 318 kts | 47° |
| 2026-05-06 10:26 | 55.92696 | 37.49150 | 8976 ft | 316 kts | 51° |
| 2026-05-06 10:26 | 55.93628 | 37.52662 | 9007 ft | 316 kts | 79° |
| 2026-05-06 10:26 | 55.93659 | 37.56549 | 9404 ft | 316 kts | 101° |
| 2026-05-06 10:27 | 55.93239 | 37.60433 | 9887 ft | 321 kts | 104° |
| 2026-05-06 10:27 | 55.92777 | 37.64368 | 10467 ft | 326 kts | 104° |
| 2026-05-06 10:27 | 55.92321 | 37.68334 | 11134 ft | 327 kts | 103° |
| 2026-05-06 10:27 | 55.91873 | 37.72313 | 11853 ft | 328 kts | 103° |
| 2026-05-06 10:28 | 55.91190 | 37.76169 | 12499 ft | 327 kts | 120° |
| 2026-05-06 10:28 | 55.90074 | 37.79714 | 13196 ft | 329 kts | 124° |
| 2026-05-06 10:28 | 55.88917 | 37.83239 | 13903 ft | 332 kts | 123° |
| 2026-05-06 10:28 | 55.87750 | 37.86833 | 14437 ft | 342 kts | 123° |
| 2026-05-06 10:29 | 55.86544 | 37.90597 | 14823 ft | 355 kts | 122° |
| 2026-05-06 10:29 | 55.85321 | 37.94465 | 15403 ft | 362 kts | 122° |
| 2026-05-06 10:29 | 55.84091 | 37.98384 | 15860 ft | 364 kts | 122° |
| 2026-05-06 10:29 | 55.82848 | 38.02343 | 15851 ft | 369 kts | 122° |
| 2026-05-06 10:30 | 55.81592 | 38.06340 | 16396 ft | 372 kts | 122° |
| 2026-05-06 10:30 | 55.80378 | 38.10235 | 17193 ft | 370 kts | 119° |
| 2026-05-06 10:30 | 55.79583 | 38.14609 | 17779 ft | 380 kts | 95° |
| 2026-05-06 10:30 | 55.79617 | 38.19102 | 18326 ft | 382 kts | 86° |
| 2026-05-06 10:31 | 55.79777 | 38.23822 | 18801 ft | 384 kts | 87° |
| 2026-05-06 10:31 | 55.79922 | 38.28608 | 18865 ft | 392 kts | 88° |
| 2026-05-06 10:31 | 55.80042 | 38.33570 | 18991 ft | 411 kts | 88° |
| 2026-05-06 10:31 | 55.80154 | 38.38769 | 19137 ft | 430 kts | 88° |
| 2026-05-06 10:32 | 55.80554 | 38.44198 | 19282 ft | 445 kts | 74° |
| 2026-05-06 10:32 | 55.81430 | 38.48947 | 19648 ft | 452 kts | 69° |
| 2026-05-06 10:32 | 55.82542 | 38.54424 | 20186 ft | 459 kts | 69° |
| 2026-05-06 10:32 | 55.83588 | 38.59806 | 20781 ft | 463 kts | 70° |
| 2026-05-06 10:33 | 55.84585 | 38.65258 | 21423 ft | 465 kts | 71° |
| 2026-05-06 10:33 | 55.85564 | 38.70777 | 22059 ft | 469 kts | 71° |
| 2026-05-06 10:33 | 55.86702 | 38.76226 | 22599 ft | 472 kts | 65° |
| 2026-05-06 10:33 | 55.88111 | 38.81535 | 23163 ft | 476 kts | 62° |
| 2026-05-06 10:34 | 55.89618 | 38.86809 | 23653 ft | 479 kts | 61° |
| 2026-05-06 10:34 | 55.91129 | 38.92132 | 24140 ft | 483 kts | 62° |
| 2026-05-06 10:34 | 55.92609 | 38.97523 | 24623 ft | 486 kts | 63° |
| 2026-05-06 10:34 | 55.94060 | 39.02973 | 25097 ft | 489 kts | 63° |
| 2026-05-06 10:35 | 55.95510 | 39.08492 | 25548 ft | 492 kts | 64° |
| 2026-05-06 10:35 | 55.96965 | 39.14046 | 25978 ft | 495 kts | 64° |
| 2026-05-06 10:35 | 55.98435 | 39.19618 | 26412 ft | 498 kts | 63° |
| 2026-05-06 10:35 | 55.99921 | 39.25240 | 26843 ft | 501 kts | 63° |
| 2026-05-06 10:36 | 56.01412 | 39.30882 | 27244 ft | 505 kts | 64° |
| 2026-05-06 10:36 | 56.02912 | 39.36578 | 27638 ft | 508 kts | 64° |
| 2026-05-06 10:36 | 56.04417 | 39.42314 | 28010 ft | 511 kts | 64° |
| 2026-05-06 10:36 | 56.05928 | 39.48086 | 28374 ft | 514 kts | 64° |
| 2026-05-06 10:37 | 56.07447 | 39.53906 | 28720 ft | 517 kts | 64° |
| 2026-05-06 10:37 | 56.09096 | 39.59616 | 29031 ft | 518 kts | 58° |
| 2026-05-06 10:37 | 56.10999 | 39.65124 | 29343 ft | 520 kts | 55° |
| 2026-05-06 10:37 | 56.13014 | 39.70508 | 29669 ft | 522 kts | 54° |
| 2026-05-06 10:38 | 56.15062 | 39.75887 | 30063 ft | 521 kts | 54° |
| 2026-05-06 10:38 | 56.17088 | 39.81281 | 30467 ft | 520 kts | 55° |
| 2026-05-06 10:38 | 56.19071 | 39.86686 | 30864 ft | 519 kts | 56° |
| 2026-05-06 10:38 | 56.21030 | 39.92130 | 31195 ft | 519 kts | 56° |
| 2026-05-06 10:39 | 56.22973 | 39.97604 | 31525 ft | 519 kts | 56° |
| 2026-05-06 10:39 | 56.24930 | 40.03156 | 31851 ft | 519 kts | 56° |
| 2026-05-06 10:39 | 56.26862 | 40.08653 | 32194 ft | 519 kts | 56° |
| 2026-05-06 10:39 | 56.28786 | 40.14130 | 32538 ft | 518 kts | 57° |
| 2026-05-06 10:40 | 56.30713 | 40.19622 | 32781 ft | 520 kts | 56° |
| 2026-05-06 10:40 | 56.32652 | 40.25150 | 32820 ft | 523 kts | 57° |
| 2026-05-06 10:40 | 56.36515 | 40.36204 | 32818 ft | 519 kts | 57° |
| 2026-05-06 10:41 | 56.40344 | 40.47207 | 32829 ft | 517 kts | 57° |
| 2026-05-06 10:41 | 56.44136 | 40.58269 | 32831 ft | 519 kts | 60° |
| 2026-05-06 10:42 | 56.47091 | 40.70170 | 32833 ft | 520 kts | 72° |
| 2026-05-06 10:42 | 56.49033 | 40.82779 | 32836 ft | 521 kts | 76° |
| 2026-05-06 10:43 | 56.50858 | 40.95483 | 32825 ft | 522 kts | 76° |
| 2026-05-06 10:44 | 56.53648 | 41.14550 | 32826 ft | 522 kts | 75° |
| 2026-05-06 10:44 | 56.55520 | 41.27263 | 32824 ft | 522 kts | 75° |
| 2026-05-06 10:45 | 56.57381 | 41.39997 | 32820 ft | 522 kts | 75° |
| 2026-05-06 10:45 | 56.59224 | 41.52742 | 32827 ft | 522 kts | 75° |
| 2026-05-06 10:46 | 56.61051 | 41.65482 | 32824 ft | 522 kts | 76° |
| 2026-05-06 10:46 | 56.62866 | 41.78237 | 32826 ft | 522 kts | 76° |
| 2026-05-06 10:47 | 56.64679 | 41.91083 | 32828 ft | 522 kts | 76° |
| 2026-05-06 10:47 | 56.66466 | 42.03858 | 32824 ft | 521 kts | 76° |
| 2026-05-06 10:48 | 56.68224 | 42.16520 | 32815 ft | 522 kts | 76° |
| 2026-05-06 10:48 | 56.69987 | 42.29323 | 32819 ft | 521 kts | 76° |
| 2026-05-06 10:49 | 56.71440 | 42.39965 | 32819 ft | 521 kts | 76° |
| 2026-05-06 10:49 | 56.73181 | 42.52793 | 32818 ft | 522 kts | 76° |
| 2026-05-06 10:50 | 56.75043 | 42.65563 | 32814 ft | 522 kts | 73° |
| 2026-05-06 10:50 | 56.77164 | 42.78204 | 32815 ft | 522 kts | 72° |
| 2026-05-06 10:51 | 56.79290 | 42.90855 | 32813 ft | 522 kts | 73° |
| 2026-05-06 10:51 | 56.81355 | 43.03537 | 32808 ft | 522 kts | 73° |
| 2026-05-06 10:52 | 56.83383 | 43.16261 | 32810 ft | 522 kts | 73° |
| 2026-05-06 10:52 | 56.85407 | 43.29073 | 32802 ft | 521 kts | 73° |
| 2026-05-06 10:53 | 56.87407 | 43.41809 | 32804 ft | 521 kts | 73° |
| 2026-05-06 10:53 | 56.89396 | 43.54561 | 32801 ft | 521 kts | 73° |
| 2026-05-06 10:54 | 56.91374 | 43.67329 | 32800 ft | 521 kts | 73° |
| 2026-05-06 10:54 | 56.93337 | 43.80105 | 32799 ft | 521 kts | 73° |
| 2026-05-06 10:55 | 56.95288 | 43.92898 | 32794 ft | 521 kts | 74° |
| 2026-05-06 10:55 | 56.97226 | 44.05702 | 32795 ft | 522 kts | 74° |
| 2026-05-06 10:56 | 56.99149 | 44.18517 | 32787 ft | 522 kts | 74° |
| 2026-05-06 10:56 | 57.01062 | 44.31364 | 32784 ft | 522 kts | 74° |
| 2026-05-06 10:57 | 57.02961 | 44.44212 | 32787 ft | 521 kts | 74° |
| 2026-05-06 10:57 | 57.04844 | 44.57060 | 32784 ft | 521 kts | 74° |
| 2026-05-06 10:58 | 57.06716 | 44.69927 | 32779 ft | 521 kts | 74° |
| 2026-05-06 10:58 | 57.08572 | 44.82796 | 32775 ft | 521 kts | 75° |
| 2026-05-06 10:59 | 57.10415 | 44.95673 | 32780 ft | 521 kts | 75° |
| 2026-05-06 10:59 | 57.12246 | 45.08578 | 32776 ft | 521 kts | 75° |
| 2026-05-06 11:00 | 57.14060 | 45.21465 | 32769 ft | 521 kts | 75° |
| 2026-05-06 11:00 | 57.15864 | 45.34387 | 32777 ft | 521 kts | 75° |
| 2026-05-06 11:01 | 57.17653 | 45.47310 | 32781 ft | 520 kts | 75° |
| 2026-05-06 11:01 | 57.19441 | 45.60336 | 32774 ft | 521 kts | 75° |
| 2026-05-06 11:02 | 57.21202 | 45.73280 | 32771 ft | 520 kts | 75° |
| 2026-05-06 11:02 | 57.22949 | 45.86226 | 32770 ft | 520 kts | 75° |
| 2026-05-06 11:03 | 57.24682 | 45.99179 | 32775 ft | 519 kts | 75° |
| 2026-05-06 11:03 | 57.26400 | 46.12129 | 32771 ft | 519 kts | 75° |
| 2026-05-06 11:04 | 57.28103 | 46.25080 | 32779 ft | 519 kts | 76° |
| 2026-05-06 11:04 | 57.29793 | 46.38049 | 32777 ft | 518 kts | 76° |
| 2026-05-06 11:05 | 57.31468 | 46.51011 | 32774 ft | 518 kts | 76° |
| 2026-05-06 11:05 | 57.33132 | 46.63995 | 32778 ft | 518 kts | 76° |
| 2026-05-06 11:06 | 57.34895 | 46.76904 | 32754 ft | 516 kts | 71° |
| 2026-05-06 11:06 | 57.37601 | 46.89146 | 32790 ft | 513 kts | 63° |
| 2026-05-06 11:07 | 57.40608 | 47.01139 | 32789 ft | 513 kts | 63° |
| 2026-05-06 11:07 | 57.43562 | 47.13200 | 32779 ft | 513 kts | 64° |
| 2026-05-06 11:08 | 57.46472 | 47.25319 | 32782 ft | 514 kts | 64° |
| 2026-05-06 11:08 | 57.49391 | 47.37534 | 32784 ft | 514 kts | 64° |
| 2026-05-06 11:09 | 57.52286 | 47.49687 | 32787 ft | 514 kts | 64° |
| 2026-05-06 11:09 | 57.55175 | 47.61870 | 32793 ft | 515 kts | 64° |
| 2026-05-06 11:10 | 57.58055 | 47.74088 | 32782 ft | 515 kts | 64° |
| 2026-05-06 11:10 | 57.60923 | 47.86321 | 32786 ft | 515 kts | 64° |
| 2026-05-06 11:11 | 57.63782 | 47.98590 | 32780 ft | 516 kts | 64° |
| 2026-05-06 11:11 | 57.66630 | 48.10882 | 32779 ft | 516 kts | 65° |
| 2026-05-06 11:12 | 57.69467 | 48.23199 | 32776 ft | 516 kts | 65° |
| 2026-05-06 11:12 | 57.72295 | 48.35536 | 32786 ft | 516 kts | 65° |
| 2026-05-06 11:13 | 57.74778 | 48.48154 | 32781 ft | 518 kts | 73° |
| 2026-05-06 11:13 | 57.76065 | 48.61424 | 32789 ft | 518 kts | 82° |
| 2026-05-06 11:14 | 57.76945 | 48.74834 | 32779 ft | 518 kts | 82° |
| 2026-05-06 11:14 | 57.77837 | 48.88233 | 32783 ft | 518 kts | 82° |
| 2026-05-06 11:15 | 57.78755 | 49.01616 | 32777 ft | 518 kts | 82° |
| 2026-05-06 11:15 | 57.79669 | 49.14996 | 32787 ft | 518 kts | 82° |
| 2026-05-06 11:16 | 57.80569 | 49.28398 | 32776 ft | 518 kts | 82° |
| 2026-05-06 11:16 | 57.81456 | 49.41880 | 32787 ft | 517 kts | 82° |
| 2026-05-06 11:17 | 57.82324 | 49.55282 | 32778 ft | 517 kts | 82° |
| 2026-05-06 11:17 | 57.83176 | 49.68673 | 32785 ft | 517 kts | 82° |
| 2026-05-06 11:18 | 57.84015 | 49.82078 | 32780 ft | 517 kts | 82° |
| 2026-05-06 11:18 | 57.84842 | 49.95492 | 32782 ft | 517 kts | 82° |
| 2026-05-06 11:19 | 57.85653 | 50.08895 | 32784 ft | 516 kts | 83° |
| 2026-05-06 11:19 | 57.86453 | 50.22297 | 32787 ft | 516 kts | 83° |
| 2026-05-06 11:20 | 57.87238 | 50.35680 | 32787 ft | 515 kts | 83° |
| 2026-05-06 11:20 | 57.88009 | 50.49060 | 32791 ft | 515 kts | 83° |
| 2026-05-06 11:21 | 57.88765 | 50.62430 | 32787 ft | 515 kts | 83° |
| 2026-05-06 11:21 | 57.89508 | 50.75817 | 32785 ft | 514 kts | 83° |
| 2026-05-06 11:22 | 57.90236 | 50.89188 | 32780 ft | 514 kts | 83° |
| 2026-05-06 11:22 | 57.90949 | 51.02557 | 32793 ft | 514 kts | 83° |
| 2026-05-06 11:23 | 57.91535 | 51.13752 | 32789 ft | 513 kts | 83° |
| 2026-05-06 11:23 | 57.92221 | 51.27107 | 32791 ft | 513 kts | 83° |
| 2026-05-06 11:24 | 57.92895 | 51.40463 | 32793 ft | 512 kts | 84° |
| 2026-05-06 11:24 | 57.93554 | 51.53802 | 32790 ft | 512 kts | 84° |
| 2026-05-06 11:25 | 57.94206 | 51.67135 | 32796 ft | 511 kts | 84° |
| 2026-05-06 11:25 | 57.94846 | 51.80474 | 32794 ft | 511 kts | 84° |
| 2026-05-06 11:26 | 57.95470 | 51.93796 | 32795 ft | 511 kts | 84° |
| 2026-05-06 11:26 | 57.96082 | 52.07126 | 32794 ft | 511 kts | 84° |
| 2026-05-06 11:27 | 57.96679 | 52.20462 | 32791 ft | 510 kts | 84° |
| 2026-05-06 11:27 | 57.97257 | 52.33757 | 32795 ft | 510 kts | 84° |
| 2026-05-06 11:28 | 57.97825 | 52.47086 | 32800 ft | 509 kts | 84° |
| 2026-05-06 11:28 | 57.98378 | 52.60399 | 32798 ft | 509 kts | 85° |
| 2026-05-06 11:29 | 57.98921 | 52.73788 | 32802 ft | 509 kts | 85° |
| 2026-05-06 11:29 | 57.99443 | 52.87009 | 32805 ft | 509 kts | 85° |
| 2026-05-06 11:30 | 57.99957 | 53.00397 | 32803 ft | 509 kts | 85° |
| 2026-05-06 11:30 | 58.00455 | 53.13707 | 32802 ft | 509 kts | 85° |
| 2026-05-06 11:31 | 58.00938 | 53.27025 | 32803 ft | 509 kts | 85° |
| 2026-05-06 11:31 | 58.01408 | 53.40346 | 32802 ft | 509 kts | 85° |
| 2026-05-06 11:32 | 58.01864 | 53.53679 | 32811 ft | 509 kts | 86° |
| 2026-05-06 11:32 | 58.02306 | 53.67012 | 32806 ft | 509 kts | 86° |
| 2026-05-06 11:33 | 58.02734 | 53.80350 | 32803 ft | 509 kts | 86° |
| 2026-05-06 11:33 | 58.03151 | 53.93684 | 32800 ft | 509 kts | 86° |
| 2026-05-06 11:34 | 58.03552 | 54.07007 | 32797 ft | 509 kts | 86° |
| 2026-05-06 11:34 | 58.03944 | 54.20334 | 32802 ft | 508 kts | 86° |
| 2026-05-06 11:35 | 58.04324 | 54.33640 | 32801 ft | 508 kts | 86° |
| 2026-05-06 11:35 | 58.04691 | 54.46948 | 32799 ft | 507 kts | 86° |
| 2026-05-06 11:36 | 58.05043 | 54.60241 | 32802 ft | 507 kts | 87° |
| 2026-05-06 11:36 | 58.05380 | 54.73534 | 32797 ft | 507 kts | 88° |
| 2026-05-06 11:37 | 58.05018 | 54.86870 | 32802 ft | 506 kts | 98° |
| 2026-05-06 11:37 | 58.04006 | 55.00006 | 32803 ft | 506 kts | 98° |
| 2026-05-06 11:38 | 58.03024 | 55.13151 | 32804 ft | 506 kts | 98° |
| 2026-05-06 11:38 | 58.02076 | 55.26307 | 32803 ft | 506 kts | 98° |
| 2026-05-06 11:39 | 58.01113 | 55.39446 | 32802 ft | 506 kts | 98° |
| 2026-05-06 11:39 | 58.00141 | 55.52596 | 32799 ft | 506 kts | 98° |
| 2026-05-06 11:40 | 57.99157 | 55.65739 | 32838 ft | 508 kts | 98° |
| 2026-05-06 11:40 | 57.98658 | 55.72330 | 33112 ft | 508 kts | 98° |
| 2026-05-06 11:40 | 57.98157 | 55.78921 | 33518 ft | 506 kts | 98° |
| 2026-05-06 11:40 | 57.97657 | 55.85451 | 33922 ft | 503 kts | 99° |
| 2026-05-06 11:41 | 57.97154 | 55.91960 | 34206 ft | 502 kts | 99° |
| 2026-05-06 11:41 | 57.96646 | 55.98483 | 34423 ft | 503 kts | 99° |
| 2026-05-06 11:41 | 57.96136 | 56.05006 | 34615 ft | 504 kts | 99° |
| 2026-05-06 11:41 | 57.95622 | 56.11546 | 34724 ft | 506 kts | 99° |
| 2026-05-06 11:42 | 57.95105 | 56.18094 | 34765 ft | 507 kts | 99° |
| 2026-05-06 11:42 | 57.94058 | 56.31216 | 34795 ft | 506 kts | 99° |
| 2026-05-06 11:43 | 57.93003 | 56.44273 | 34799 ft | 504 kts | 99° |
| 2026-05-06 11:43 | 57.91935 | 56.57308 | 34798 ft | 504 kts | 99° |
| 2026-05-06 11:44 | 57.90309 | 56.76825 | 34806 ft | 504 kts | 99° |
| 2026-05-06 11:44 | 57.89200 | 56.89937 | 34807 ft | 505 kts | 100° |
| 2026-05-06 11:45 | 57.88082 | 57.02978 | 34800 ft | 506 kts | 100° |
| 2026-05-06 11:45 | 57.86948 | 57.16050 | 34805 ft | 507 kts | 100° |
| 2026-05-06 11:46 | 57.85799 | 57.29130 | 34808 ft | 508 kts | 100° |
| 2026-05-06 11:46 | 57.84634 | 57.42224 | 34806 ft | 508 kts | 100° |
| 2026-05-06 11:47 | 57.83456 | 57.55306 | 34802 ft | 509 kts | 101° |
| 2026-05-06 11:47 | 57.82265 | 57.68387 | 34809 ft | 509 kts | 101° |
| 2026-05-06 11:48 | 57.81060 | 57.81461 | 34811 ft | 509 kts | 101° |
| 2026-05-06 11:48 | 57.79843 | 57.94533 | 34812 ft | 509 kts | 101° |
| 2026-05-06 11:49 | 57.78610 | 58.07615 | 34822 ft | 509 kts | 101° |
| 2026-05-06 11:49 | 57.77369 | 58.20683 | 34817 ft | 510 kts | 101° |
| 2026-05-06 11:50 | 57.76118 | 58.33748 | 34819 ft | 510 kts | 101° |
| 2026-05-06 11:50 | 57.74852 | 58.46821 | 34825 ft | 510 kts | 101° |
| 2026-05-06 11:51 | 57.73577 | 58.59880 | 34825 ft | 511 kts | 102° |
| 2026-05-06 11:51 | 57.72289 | 58.72959 | 34826 ft | 511 kts | 102° |
| 2026-05-06 11:52 | 57.70986 | 58.86031 | 34825 ft | 511 kts | 102° |
| 2026-05-06 11:52 | 57.69661 | 58.99185 | 34826 ft | 512 kts | 102° |
| 2026-05-06 11:53 | 57.68330 | 59.12244 | 34835 ft | 512 kts | 102° |
| 2026-05-06 11:53 | 57.66985 | 59.25308 | 34833 ft | 512 kts | 102° |
| 2026-05-06 11:54 | 57.65625 | 59.38375 | 34836 ft | 512 kts | 102° |
| 2026-05-06 11:54 | 57.64252 | 59.51428 | 34837 ft | 512 kts | 103° |
| 2026-05-06 11:55 | 57.62865 | 59.64479 | 34838 ft | 513 kts | 103° |
| 2026-05-06 11:55 | 57.61702 | 59.75310 | 34838 ft | 513 kts | 103° |
| 2026-05-06 11:56 | 57.60050 | 59.90546 | 34842 ft | 513 kts | 103° |
| 2026-05-06 11:56 | 57.58865 | 60.01363 | 34842 ft | 513 kts | 103° |
| 2026-05-06 11:57 | 57.57427 | 60.14376 | 34848 ft | 513 kts | 103° |
| 2026-05-06 11:57 | 57.55975 | 60.27375 | 34850 ft | 513 kts | 103° |
| 2026-05-06 11:58 | 57.54501 | 60.40458 | 34851 ft | 512 kts | 104° |
| 2026-05-06 11:58 | 57.53026 | 60.53422 | 34845 ft | 512 kts | 104° |
| 2026-05-06 11:59 | 57.51918 | 60.66511 | 34843 ft | 513 kts | 95° |
| 2026-05-06 11:59 | 57.51574 | 60.79771 | 34849 ft | 513 kts | 94° |
| 2026-05-06 12:00 | 57.51239 | 60.93036 | 34846 ft | 513 kts | 94° |
| 2026-05-06 12:00 | 57.50846 | 61.06295 | 34853 ft | 513 kts | 95° |
| 2026-05-06 12:01 | 57.50420 | 61.19533 | 34859 ft | 513 kts | 95° |
| 2026-05-06 12:01 | 57.49981 | 61.32790 | 34843 ft | 513 kts | 95° |
| 2026-05-06 12:02 | 57.49531 | 61.46036 | 34853 ft | 513 kts | 95° |
| 2026-05-06 12:02 | 57.49071 | 61.59261 | 34850 ft | 513 kts | 95° |
| 2026-05-06 12:03 | 57.48593 | 61.72495 | 34852 ft | 513 kts | 95° |
| 2026-05-06 12:03 | 57.48104 | 61.85723 | 34843 ft | 513 kts | 95° |
| 2026-05-06 12:04 | 57.47604 | 61.98927 | 34849 ft | 513 kts | 95° |
| 2026-05-06 12:04 | 57.47092 | 62.12133 | 34841 ft | 512 kts | 95° |
| 2026-05-06 12:05 | 57.46565 | 62.25344 | 34845 ft | 512 kts | 95° |
| 2026-05-06 12:05 | 57.46033 | 62.38541 | 34850 ft | 512 kts | 95° |
| 2026-05-06 12:06 | 57.45487 | 62.51823 | 34845 ft | 512 kts | 96° |
| 2026-05-06 12:06 | 57.44931 | 62.65000 | 34843 ft | 512 kts | 96° |
| 2026-05-06 12:07 | 57.44362 | 62.78174 | 34845 ft | 512 kts | 96° |
| 2026-05-06 12:07 | 57.43778 | 62.91336 | 34845 ft | 512 kts | 96° |
| 2026-05-06 12:08 | 57.43181 | 63.04496 | 34858 ft | 511 kts | 96° |
| 2026-05-06 12:08 | 57.42570 | 63.17646 | 34857 ft | 511 kts | 96° |
| 2026-05-06 12:09 | 57.41947 | 63.30778 | 34845 ft | 511 kts | 96° |
| 2026-05-06 12:09 | 57.41310 | 63.43902 | 34863 ft | 511 kts | 96° |
| 2026-05-06 12:10 | 57.40661 | 63.57015 | 34862 ft | 510 kts | 96° |
| 2026-05-06 12:10 | 57.39999 | 63.70117 | 34862 ft | 510 kts | 96° |
| 2026-05-06 12:11 | 57.38822 | 63.83057 | 34862 ft | 508 kts | 106° |
| 2026-05-06 12:11 | 57.36976 | 63.95692 | 34862 ft | 508 kts | 107° |
| 2026-05-06 12:12 | 57.35124 | 64.08322 | 34866 ft | 509 kts | 107° |
| 2026-05-06 12:12 | 57.33303 | 64.20983 | 34868 ft | 509 kts | 106° |
| 2026-05-06 12:13 | 57.31483 | 64.33632 | 34872 ft | 509 kts | 106° |
| 2026-05-06 12:13 | 57.29636 | 64.46352 | 34868 ft | 508 kts | 106° |
| 2026-05-06 12:14 | 57.27797 | 64.58880 | 34877 ft | 508 kts | 107° |
| 2026-05-06 12:14 | 57.25920 | 64.71552 | 34875 ft | 508 kts | 107° |
| 2026-05-06 12:15 | 57.24048 | 64.84119 | 34879 ft | 507 kts | 107° |
| 2026-05-06 12:15 | 57.22166 | 64.96661 | 34880 ft | 507 kts | 107° |
| 2026-05-06 12:16 | 57.20273 | 65.09184 | 34885 ft | 507 kts | 107° |
| 2026-05-06 12:16 | 57.18370 | 65.21692 | 34886 ft | 506 kts | 107° |
| 2026-05-06 12:17 | 57.16637 | 65.34256 | 34878 ft | 507 kts | 100° |
| 2026-05-06 12:17 | 57.15794 | 65.47131 | 34886 ft | 506 kts | 96° |
| 2026-05-06 12:18 | 57.15032 | 65.60037 | 34887 ft | 507 kts | 97° |
| 2026-05-06 12:18 | 57.14213 | 65.72921 | 34886 ft | 507 kts | 97° |
| 2026-05-06 12:19 | 57.13357 | 65.85804 | 34888 ft | 507 kts | 97° |
| 2026-05-06 12:19 | 57.12491 | 65.98673 | 34890 ft | 507 kts | 97° |
| 2026-05-06 12:20 | 57.11614 | 66.11555 | 34890 ft | 507 kts | 97° |
| 2026-05-06 12:20 | 57.10722 | 66.24419 | 34892 ft | 507 kts | 97° |
| 2026-05-06 12:21 | 57.09817 | 66.37268 | 34896 ft | 507 kts | 97° |
| 2026-05-06 12:21 | 57.08894 | 66.50217 | 34892 ft | 507 kts | 97° |
| 2026-05-06 12:22 | 57.07965 | 66.63069 | 34893 ft | 507 kts | 98° |
| 2026-05-06 12:22 | 57.07023 | 66.75912 | 34893 ft | 507 kts | 98° |
| 2026-05-06 12:23 | 57.06070 | 66.88747 | 34895 ft | 507 kts | 98° |
| 2026-05-06 12:23 | 57.05050 | 67.01563 | 34900 ft | 507 kts | 99° |
| 2026-05-06 12:24 | 57.03935 | 67.14348 | 34896 ft | 507 kts | 99° |
| 2026-05-06 12:24 | 57.02804 | 67.27142 | 34904 ft | 507 kts | 99° |
| 2026-05-06 12:25 | 57.01674 | 67.39929 | 34904 ft | 508 kts | 99° |
| 2026-05-06 12:25 | 57.00538 | 67.52716 | 34905 ft | 508 kts | 99° |
| 2026-05-06 12:26 | 56.99390 | 67.65497 | 34908 ft | 508 kts | 99° |
| 2026-05-06 12:26 | 56.98226 | 67.78284 | 34908 ft | 508 kts | 99° |
| 2026-05-06 12:27 | 56.97050 | 67.91052 | 34911 ft | 508 kts | 99° |
| 2026-05-06 12:27 | 56.95860 | 68.03822 | 34908 ft | 508 kts | 99° |
| 2026-05-06 12:28 | 56.94656 | 68.16583 | 34913 ft | 508 kts | 100° |
| 2026-05-06 12:28 | 56.93441 | 68.29332 | 34914 ft | 508 kts | 100° |
| 2026-05-06 12:29 | 56.92412 | 68.40015 | 34916 ft | 508 kts | 100° |
| 2026-05-06 12:29 | 56.91173 | 68.52739 | 34917 ft | 508 kts | 100° |
| 2026-05-06 12:30 | 56.89920 | 68.65468 | 34921 ft | 508 kts | 100° |
| 2026-05-06 12:30 | 56.88655 | 68.78187 | 34921 ft | 508 kts | 100° |
| 2026-05-06 12:31 | 56.87376 | 68.90905 | 34920 ft | 508 kts | 100° |
| 2026-05-06 12:31 | 56.86084 | 69.03610 | 34921 ft | 509 kts | 101° |
| 2026-05-06 12:32 | 56.84779 | 69.16307 | 34924 ft | 509 kts | 101° |
| 2026-05-06 12:32 | 56.83461 | 69.28998 | 34930 ft | 508 kts | 101° |
| 2026-05-06 12:33 | 56.82132 | 69.41674 | 34932 ft | 508 kts | 101° |
| 2026-05-06 12:33 | 56.80788 | 69.54349 | 34932 ft | 508 kts | 101° |
| 2026-05-06 12:34 | 56.79432 | 69.67010 | 34932 ft | 508 kts | 101° |
| 2026-05-06 12:34 | 56.78064 | 69.79652 | 34938 ft | 508 kts | 101° |
| 2026-05-06 12:35 | 56.76683 | 69.92295 | 34938 ft | 508 kts | 101° |
| 2026-05-06 12:35 | 56.75281 | 70.05001 | 34942 ft | 508 kts | 101° |
| 2026-05-06 12:36 | 56.73877 | 70.17623 | 34941 ft | 508 kts | 101° |
| 2026-05-06 12:36 | 56.72427 | 70.30228 | 34946 ft | 508 kts | 102° |
| 2026-05-06 12:37 | 56.70886 | 70.42781 | 34947 ft | 508 kts | 103° |
| 2026-05-06 12:37 | 56.69327 | 70.55322 | 34948 ft | 508 kts | 103° |
| 2026-05-06 12:38 | 56.67767 | 70.67856 | 34948 ft | 508 kts | 103° |
| 2026-05-06 12:38 | 56.66201 | 70.80386 | 34953 ft | 508 kts | 103° |
| 2026-05-06 12:39 | 56.64623 | 70.92910 | 34953 ft | 508 kts | 103° |
| 2026-05-06 12:39 | 56.63033 | 71.05420 | 34960 ft | 508 kts | 103° |
| 2026-05-06 12:40 | 56.61428 | 71.17927 | 34957 ft | 508 kts | 103° |
| 2026-05-06 12:40 | 56.59811 | 71.30424 | 34958 ft | 509 kts | 103° |
| 2026-05-06 12:41 | 56.58182 | 71.42901 | 34960 ft | 509 kts | 103° |
| 2026-05-06 12:41 | 56.56538 | 71.55387 | 34960 ft | 509 kts | 103° |
| 2026-05-06 12:42 | 56.54872 | 71.67937 | 34964 ft | 509 kts | 103° |
| 2026-05-06 12:42 | 56.53214 | 71.80324 | 34966 ft | 509 kts | 103° |
| 2026-05-06 12:43 | 56.51523 | 71.92850 | 34969 ft | 509 kts | 103° |
| 2026-05-06 12:43 | 56.49830 | 72.05287 | 34966 ft | 509 kts | 103° |
| 2026-05-06 12:44 | 56.48125 | 72.17710 | 34966 ft | 509 kts | 103° |
| 2026-05-06 12:44 | 56.46408 | 72.30121 | 34964 ft | 509 kts | 104° |
| 2026-05-06 12:45 | 56.44679 | 72.42517 | 34962 ft | 509 kts | 104° |
| 2026-05-06 12:46 | 56.42061 | 72.61102 | 34964 ft | 509 kts | 104° |
| 2026-05-06 12:46 | 56.40300 | 72.73476 | 34964 ft | 509 kts | 104° |
| 2026-05-06 12:47 | 56.38527 | 72.85840 | 34961 ft | 509 kts | 104° |
| 2026-05-06 12:47 | 56.36742 | 72.98188 | 34962 ft | 509 kts | 104° |
| 2026-05-06 12:48 | 56.34945 | 73.10521 | 34965 ft | 509 kts | 104° |
| 2026-05-06 12:48 | 56.33136 | 73.22843 | 34964 ft | 508 kts | 104° |
| 2026-05-06 12:49 | 56.31315 | 73.35153 | 34961 ft | 508 kts | 104° |
| 2026-05-06 12:49 | 56.29482 | 73.47454 | 34964 ft | 508 kts | 104° |
| 2026-05-06 12:50 | 56.27624 | 73.59821 | 34963 ft | 508 kts | 104° |
| 2026-05-06 12:50 | 56.25769 | 73.72086 | 34964 ft | 508 kts | 105° |
| 2026-05-06 12:51 | 56.23904 | 73.84335 | 34965 ft | 508 kts | 105° |
| 2026-05-06 12:51 | 56.22231 | 73.96660 | 34966 ft | 507 kts | 97° |
| 2026-05-06 12:52 | 56.21322 | 74.09208 | 34972 ft | 506 kts | 96° |
| 2026-05-06 12:52 | 56.20458 | 74.21772 | 34966 ft | 507 kts | 96° |
| 2026-05-06 12:53 | 56.19554 | 74.34312 | 34966 ft | 507 kts | 96° |
| 2026-05-06 12:53 | 56.18612 | 74.46861 | 34967 ft | 507 kts | 97° |
| 2026-05-06 12:54 | 56.17652 | 74.59403 | 34970 ft | 507 kts | 97° |
| 2026-05-06 12:54 | 56.16679 | 74.71939 | 34969 ft | 507 kts | 97° |
| 2026-05-06 12:55 | 56.15696 | 74.84472 | 34968 ft | 507 kts | 97° |
| 2026-05-06 12:55 | 56.14699 | 74.97002 | 34971 ft | 507 kts | 97° |
| 2026-05-06 12:56 | 56.13690 | 75.09520 | 34972 ft | 508 kts | 97° |
| 2026-05-06 12:56 | 56.12669 | 75.22037 | 34975 ft | 507 kts | 97° |
| 2026-05-06 12:57 | 56.11634 | 75.34557 | 34972 ft | 508 kts | 97° |
| 2026-05-06 12:57 | 56.10586 | 75.47071 | 34973 ft | 508 kts | 97° |
| 2026-05-06 12:58 | 56.09526 | 75.59567 | 34963 ft | 508 kts | 97° |
| 2026-05-06 12:58 | 56.08446 | 75.72148 | 34979 ft | 508 kts | 97° |
| 2026-05-06 12:59 | 56.07361 | 75.84634 | 34969 ft | 508 kts | 98° |
| 2026-05-06 12:59 | 56.06262 | 75.97128 | 34970 ft | 508 kts | 98° |
| 2026-05-06 13:00 | 56.05151 | 76.09612 | 34973 ft | 508 kts | 98° |
| 2026-05-06 13:00 | 56.04027 | 76.22088 | 34978 ft | 508 kts | 98° |
| 2026-05-06 13:01 | 56.02889 | 76.34564 | 34978 ft | 509 kts | 98° |
| 2026-05-06 13:01 | 56.01739 | 76.47043 | 34971 ft | 509 kts | 98° |
| 2026-05-06 13:02 | 56.00772 | 76.57419 | 34966 ft | 509 kts | 98° |
| 2026-05-06 13:02 | 55.99597 | 76.69899 | 34965 ft | 510 kts | 98° |
| 2026-05-06 13:03 | 55.98408 | 76.82385 | 34964 ft | 510 kts | 98° |
| 2026-05-06 13:03 | 55.97198 | 76.94938 | 34958 ft | 510 kts | 98° |
| 2026-05-06 13:04 | 55.95984 | 77.07410 | 34955 ft | 510 kts | 98° |
| 2026-05-06 13:04 | 55.94757 | 77.19871 | 34961 ft | 510 kts | 99° |
| 2026-05-06 13:05 | 55.93518 | 77.32328 | 34953 ft | 510 kts | 99° |
| 2026-05-06 13:05 | 55.92265 | 77.44785 | 34960 ft | 510 kts | 99° |
| 2026-05-06 13:06 | 55.90998 | 77.57252 | 34954 ft | 511 kts | 99° |
| 2026-05-06 13:06 | 55.89719 | 77.69702 | 34954 ft | 511 kts | 99° |
| 2026-05-06 13:07 | 55.88427 | 77.82163 | 34948 ft | 511 kts | 99° |
| 2026-05-06 13:07 | 55.87121 | 77.94600 | 34950 ft | 511 kts | 99° |
| 2026-05-06 13:08 | 55.85724 | 78.07020 | 34947 ft | 512 kts | 100° |
| 2026-05-06 13:08 | 55.84285 | 78.19426 | 34947 ft | 512 kts | 100° |
| 2026-05-06 13:09 | 55.82842 | 78.31842 | 34943 ft | 512 kts | 100° |
| 2026-05-06 13:09 | 55.81395 | 78.44250 | 34941 ft | 513 kts | 100° |
| 2026-05-06 13:10 | 55.79938 | 78.56656 | 34937 ft | 513 kts | 101° |
| 2026-05-06 13:10 | 55.78466 | 78.69061 | 34934 ft | 513 kts | 101° |
| 2026-05-06 13:11 | 55.76972 | 78.81538 | 34934 ft | 513 kts | 101° |
| 2026-05-06 13:11 | 55.75474 | 78.93930 | 34932 ft | 513 kts | 101° |
| 2026-05-06 13:12 | 55.73962 | 79.06329 | 34934 ft | 514 kts | 101° |
| 2026-05-06 13:12 | 55.72461 | 79.18521 | 34931 ft | 514 kts | 101° |
| 2026-05-06 13:13 | 55.70925 | 79.30898 | 34926 ft | 514 kts | 101° |
| 2026-05-06 13:13 | 55.69374 | 79.43277 | 34928 ft | 514 kts | 101° |
| 2026-05-06 13:14 | 55.67811 | 79.55651 | 34924 ft | 514 kts | 102° |
| 2026-05-06 13:14 | 55.66237 | 79.68003 | 34921 ft | 514 kts | 102° |
| 2026-05-06 13:15 | 55.64650 | 79.80361 | 34921 ft | 515 kts | 102° |
| 2026-05-06 13:15 | 55.63050 | 79.92714 | 34919 ft | 515 kts | 102° |
| 2026-05-06 13:16 | 55.61451 | 80.05067 | 34915 ft | 516 kts | 102° |
| 2026-05-06 13:16 | 55.59843 | 80.17438 | 34908 ft | 516 kts | 102° |
| 2026-05-06 13:17 | 55.58221 | 80.29811 | 34904 ft | 517 kts | 102° |
| 2026-05-06 13:17 | 55.56586 | 80.42166 | 34903 ft | 517 kts | 103° |
| 2026-05-06 13:18 | 55.54924 | 80.54613 | 34900 ft | 517 kts | 103° |
| 2026-05-06 13:18 | 55.53260 | 80.66975 | 34893 ft | 518 kts | 103° |
| 2026-05-06 13:19 | 55.51583 | 80.79337 | 34891 ft | 518 kts | 103° |
| 2026-05-06 13:19 | 55.49892 | 80.91695 | 34891 ft | 518 kts | 103° |
| 2026-05-06 13:20 | 55.48189 | 81.04053 | 34890 ft | 518 kts | 103° |
| 2026-05-06 13:20 | 55.46472 | 81.16392 | 34886 ft | 518 kts | 104° |
| 2026-05-06 13:21 | 55.44712 | 81.28705 | 34878 ft | 519 kts | 104° |
| 2026-05-06 13:21 | 55.42930 | 81.41017 | 34878 ft | 519 kts | 104° |
| 2026-05-06 13:22 | 55.41141 | 81.53322 | 34874 ft | 519 kts | 104° |
| 2026-05-06 13:22 | 55.39342 | 81.65622 | 34871 ft | 519 kts | 105° |
| 2026-05-06 13:23 | 55.37531 | 81.77916 | 34871 ft | 519 kts | 105° |
| 2026-05-06 13:23 | 55.35705 | 81.90207 | 34872 ft | 520 kts | 105° |
| 2026-05-06 13:24 | 55.33867 | 82.02492 | 34869 ft | 520 kts | 105° |
| 2026-05-06 13:24 | 55.32052 | 82.14529 | 34866 ft | 521 kts | 106° |
| 2026-05-06 13:25 | 55.30187 | 82.26822 | 34866 ft | 521 kts | 106° |
| 2026-05-06 13:25 | 55.27881 | 82.38824 | 34870 ft | 518 kts | 117° |
| 2026-05-06 13:26 | 55.24348 | 82.49868 | 34873 ft | 514 kts | 128° |
| 2026-05-06 13:26 | 55.20102 | 82.59940 | 34882 ft | 514 kts | 130° |
| 2026-05-06 13:27 | 55.15854 | 82.69992 | 34877 ft | 514 kts | 129° |
| 2026-05-06 13:27 | 55.11639 | 82.80102 | 34876 ft | 515 kts | 129° |
| 2026-05-06 13:28 | 55.07608 | 82.90027 | 34877 ft | 516 kts | 125° |
| 2026-05-06 13:28 | 55.04200 | 83.01108 | 34881 ft | 519 kts | 120° |
| 2026-05-06 13:29 | 55.00961 | 83.12361 | 34876 ft | 519 kts | 120° |
| 2026-05-06 13:29 | 54.97686 | 83.23560 | 34875 ft | 519 kts | 120° |
| 2026-05-06 13:30 | 54.94369 | 83.34732 | 34879 ft | 519 kts | 121° |
| 2026-05-06 13:30 | 54.91041 | 83.45863 | 34881 ft | 519 kts | 121° |
| 2026-05-06 13:31 | 54.87704 | 83.56979 | 34881 ft | 519 kts | 121° |
| 2026-05-06 13:31 | 54.84359 | 83.68078 | 34878 ft | 519 kts | 121° |
| 2026-05-06 13:32 | 54.81003 | 83.79163 | 34889 ft | 519 kts | 121° |
| 2026-05-06 13:32 | 54.77635 | 83.90237 | 34876 ft | 519 kts | 121° |
| 2026-05-06 13:33 | 54.74239 | 84.01352 | 34886 ft | 519 kts | 121° |
| 2026-05-06 13:33 | 54.70851 | 84.12388 | 34885 ft | 519 kts | 122° |
| 2026-05-06 13:34 | 54.68031 | 84.21544 | 34888 ft | 519 kts | 122° |
| 2026-05-06 13:34 | 54.64629 | 84.32523 | 34891 ft | 519 kts | 122° |
| 2026-05-06 13:35 | 54.61214 | 84.43485 | 34893 ft | 518 kts | 122° |
| 2026-05-06 13:35 | 54.57789 | 84.54434 | 34894 ft | 518 kts | 122° |
| 2026-05-06 13:36 | 54.54358 | 84.65362 | 34895 ft | 518 kts | 122° |
| 2026-05-06 13:36 | 54.50922 | 84.76255 | 34901 ft | 518 kts | 122° |
| 2026-05-06 13:37 | 54.47473 | 84.87143 | 34896 ft | 518 kts | 122° |
| 2026-05-06 13:37 | 54.44017 | 84.98000 | 34905 ft | 518 kts | 122° |
| 2026-05-06 13:38 | 54.40529 | 85.08910 | 34905 ft | 517 kts | 122° |
| 2026-05-06 13:38 | 54.37059 | 85.19718 | 34910 ft | 517 kts | 122° |
| 2026-05-06 13:39 | 54.33579 | 85.30508 | 34907 ft | 517 kts | 122° |
| 2026-05-06 13:39 | 54.30095 | 85.41269 | 34911 ft | 516 kts | 122° |
| 2026-05-06 13:40 | 54.26600 | 85.52001 | 34915 ft | 516 kts | 122° |
| 2026-05-06 13:40 | 54.23095 | 85.62710 | 34912 ft | 516 kts | 123° |
| 2026-05-06 13:41 | 54.19581 | 85.73405 | 34913 ft | 516 kts | 123° |
| 2026-05-06 13:41 | 54.16059 | 85.84083 | 34917 ft | 516 kts | 123° |
| 2026-05-06 13:42 | 54.12528 | 85.94745 | 34918 ft | 516 kts | 123° |
| 2026-05-06 13:42 | 54.08983 | 86.05400 | 34914 ft | 517 kts | 123° |
| 2026-05-06 13:43 | 54.05430 | 86.16032 | 34918 ft | 517 kts | 123° |
| 2026-05-06 13:43 | 54.01862 | 86.26664 | 34903 ft | 517 kts | 123° |
| 2026-05-06 13:44 | 53.98283 | 86.37281 | 34920 ft | 518 kts | 123° |
| 2026-05-06 13:44 | 53.94696 | 86.47879 | 34904 ft | 518 kts | 123° |
| 2026-05-06 13:45 | 53.91097 | 86.58468 | 34899 ft | 518 kts | 123° |
| 2026-05-06 13:45 | 53.85674 | 86.74338 | 34884 ft | 519 kts | 123° |
| 2026-05-06 13:46 | 53.82026 | 86.84962 | 34885 ft | 519 kts | 123° |
| 2026-05-06 13:46 | 53.78829 | 86.95943 | 34884 ft | 522 kts | 116° |
| 2026-05-06 13:47 | 53.75952 | 87.07213 | 34884 ft | 522 kts | 116° |
| 2026-05-06 13:47 | 53.73057 | 87.18486 | 34892 ft | 522 kts | 116° |
| 2026-05-06 13:48 | 53.70128 | 87.29696 | 34905 ft | 522 kts | 116° |
| 2026-05-06 13:48 | 53.67173 | 87.40891 | 34913 ft | 522 kts | 117° |
| 2026-05-06 13:49 | 53.64213 | 87.52050 | 34919 ft | 522 kts | 117° |
| 2026-05-06 13:49 | 53.61245 | 87.63193 | 34922 ft | 521 kts | 117° |
| 2026-05-06 13:50 | 53.58267 | 87.74320 | 34927 ft | 521 kts | 117° |
| 2026-05-06 13:50 | 53.55280 | 87.85428 | 34926 ft | 521 kts | 117° |
| 2026-05-06 13:51 | 53.52283 | 87.96519 | 34930 ft | 521 kts | 117° |
| 2026-05-06 13:51 | 53.49279 | 88.07581 | 34938 ft | 520 kts | 117° |
| 2026-05-06 13:52 | 53.46264 | 88.18634 | 34933 ft | 521 kts | 117° |
| 2026-05-06 13:52 | 53.43240 | 88.29665 | 34938 ft | 521 kts | 117° |
| 2026-05-06 13:53 | 53.40180 | 88.40773 | 34953 ft | 521 kts | 117° |
| 2026-05-06 13:53 | 53.37153 | 88.51712 | 34957 ft | 521 kts | 117° |
| 2026-05-06 13:54 | 53.34072 | 88.62792 | 34954 ft | 522 kts | 117° |
| 2026-05-06 13:54 | 53.30998 | 88.73795 | 34961 ft | 522 kts | 117° |
| 2026-05-06 13:55 | 53.27914 | 88.84786 | 34962 ft | 522 kts | 117° |
| 2026-05-06 13:55 | 53.24822 | 88.95757 | 34978 ft | 522 kts | 117° |
| 2026-05-06 13:56 | 53.21721 | 89.06709 | 34976 ft | 522 kts | 117° |
| 2026-05-06 13:56 | 53.18618 | 89.17636 | 34965 ft | 521 kts | 117° |
| 2026-05-06 13:57 | 53.15504 | 89.28553 | 34977 ft | 521 kts | 117° |
| 2026-05-06 13:57 | 53.12386 | 89.39441 | 34982 ft | 521 kts | 117° |
| 2026-05-06 13:58 | 53.09256 | 89.50316 | 34986 ft | 521 kts | 117° |
| 2026-05-06 13:58 | 53.06116 | 89.61175 | 34991 ft | 522 kts | 117° |
| 2026-05-06 13:59 | 53.02959 | 89.72043 | 34988 ft | 522 kts | 117° |
| 2026-05-06 13:59 | 52.99790 | 89.82902 | 34986 ft | 523 kts | 117° |
| 2026-05-06 14:00 | 52.96605 | 89.93764 | 34987 ft | 523 kts | 117° |
| 2026-05-06 14:00 | 52.93410 | 90.04615 | 34991 ft | 524 kts | 117° |
| 2026-05-06 14:01 | 52.90183 | 90.15520 | 35004 ft | 524 kts | 118° |
| 2026-05-06 14:01 | 52.86960 | 90.26365 | 34999 ft | 524 kts | 118° |
| 2026-05-06 14:02 | 52.83733 | 90.37176 | 35003 ft | 524 kts | 118° |
| 2026-05-06 14:02 | 52.80497 | 90.47965 | 35011 ft | 524 kts | 118° |
| 2026-05-06 14:03 | 52.77253 | 90.58734 | 35014 ft | 523 kts | 118° |
| 2026-05-06 14:03 | 52.74004 | 90.69470 | 35028 ft | 523 kts | 118° |
| 2026-05-06 14:04 | 52.70745 | 90.80189 | 35033 ft | 522 kts | 118° |
| 2026-05-06 14:04 | 52.67481 | 90.90879 | 35044 ft | 522 kts | 117° |
| 2026-05-06 14:05 | 52.64210 | 91.01544 | 35044 ft | 521 kts | 117° |
| 2026-05-06 14:05 | 52.60933 | 91.12182 | 35056 ft | 521 kts | 118° |
| 2026-05-06 14:06 | 52.57643 | 91.22817 | 35053 ft | 522 kts | 117° |
| 2026-05-06 14:06 | 52.54341 | 91.33443 | 35062 ft | 522 kts | 117° |
| 2026-05-06 14:07 | 52.51029 | 91.44054 | 35064 ft | 522 kts | 118° |
| 2026-05-06 14:07 | 52.47704 | 91.54655 | 35065 ft | 522 kts | 118° |
| 2026-05-06 14:08 | 52.44914 | 91.63516 | 35068 ft | 522 kts | 117° |
| 2026-05-06 14:08 | 52.41579 | 91.74079 | 35078 ft | 522 kts | 118° |
| 2026-05-06 14:09 | 52.38231 | 91.84627 | 35058 ft | 522 kts | 118° |
| 2026-05-06 14:09 | 52.34873 | 91.95158 | 35066 ft | 522 kts | 118° |
| 2026-05-06 14:10 | 52.31511 | 92.05660 | 35077 ft | 521 kts | 118° |
| 2026-05-06 14:10 | 52.28143 | 92.16138 | 35098 ft | 520 kts | 118° |
| 2026-05-06 14:11 | 52.24766 | 92.26597 | 35071 ft | 520 kts | 118° |
| 2026-05-06 14:11 | 52.21387 | 92.37018 | 35067 ft | 519 kts | 118° |
| 2026-05-06 14:12 | 52.18003 | 92.47411 | 35084 ft | 519 kts | 118° |
| 2026-05-06 14:12 | 52.14608 | 92.57789 | 35075 ft | 519 kts | 118° |
| 2026-05-06 14:13 | 52.11182 | 92.68224 | 35090 ft | 519 kts | 118° |
| 2026-05-06 14:13 | 52.07768 | 92.78580 | 35103 ft | 519 kts | 118° |
| 2026-05-06 14:14 | 52.04342 | 92.88923 | 35089 ft | 520 kts | 118° |
| 2026-05-06 14:14 | 52.00907 | 92.99252 | 35089 ft | 520 kts | 118° |
| 2026-05-06 14:15 | 51.97460 | 93.09578 | 35094 ft | 521 kts | 118° |
| 2026-05-06 14:15 | 51.94001 | 93.19891 | 35084 ft | 521 kts | 118° |
| 2026-05-06 14:16 | 51.90533 | 93.30194 | 35088 ft | 521 kts | 118° |
| 2026-05-06 14:16 | 51.87050 | 93.40497 | 35091 ft | 522 kts | 118° |
| 2026-05-06 14:17 | 51.83557 | 93.50785 | 35085 ft | 522 kts | 118° |
| 2026-05-06 14:17 | 51.80055 | 93.61057 | 35084 ft | 522 kts | 118° |
| 2026-05-06 14:18 | 51.76548 | 93.71306 | 35081 ft | 521 kts | 118° |
| 2026-05-06 14:18 | 51.73032 | 93.81535 | 35087 ft | 521 kts | 118° |
| 2026-05-06 14:19 | 51.69511 | 93.91741 | 35080 ft | 520 kts | 118° |
| 2026-05-06 14:19 | 51.65988 | 94.01909 | 35078 ft | 520 kts | 118° |
| 2026-05-06 14:20 | 51.62463 | 94.12052 | 35078 ft | 519 kts | 118° |
| 2026-05-06 14:20 | 51.58970 | 94.22211 | 35082 ft | 519 kts | 115° |
| 2026-05-06 14:21 | 51.55965 | 94.32829 | 35088 ft | 518 kts | 112° |
| 2026-05-06 14:21 | 51.53052 | 94.43418 | 35082 ft | 519 kts | 112° |
| 2026-05-06 14:22 | 51.50106 | 94.54005 | 35078 ft | 519 kts | 113° |
| 2026-05-06 14:22 | 51.47131 | 94.64562 | 35085 ft | 520 kts | 113° |
| 2026-05-06 14:23 | 51.44138 | 94.75111 | 35083 ft | 520 kts | 113° |
| 2026-05-06 14:23 | 51.41133 | 94.85654 | 35085 ft | 520 kts | 113° |
| 2026-05-06 14:24 | 51.38119 | 94.96189 | 35088 ft | 521 kts | 113° |
| 2026-05-06 14:24 | 51.35091 | 95.06727 | 35086 ft | 521 kts | 113° |
| 2026-05-06 14:25 | 51.32058 | 95.17238 | 35092 ft | 521 kts | 113° |
| 2026-05-06 14:25 | 51.29017 | 95.27729 | 35097 ft | 520 kts | 113° |
| 2026-05-06 14:26 | 51.25964 | 95.38215 | 35110 ft | 520 kts | 113° |
| 2026-05-06 14:26 | 51.23105 | 95.47991 | 35109 ft | 521 kts | 113° |
| 2026-05-06 14:27 | 51.20035 | 95.58447 | 35111 ft | 521 kts | 113° |
| 2026-05-06 14:27 | 51.16952 | 95.68901 | 35114 ft | 521 kts | 114° |
| 2026-05-06 14:28 | 51.13863 | 95.79331 | 35125 ft | 520 kts | 114° |
| 2026-05-06 14:28 | 51.10764 | 95.89747 | 35119 ft | 521 kts | 114° |
| 2026-05-06 14:29 | 51.07637 | 96.00214 | 35111 ft | 520 kts | 114° |
| 2026-05-06 14:29 | 51.04522 | 96.10592 | 35126 ft | 520 kts | 114° |
| 2026-05-06 14:30 | 51.01401 | 96.20951 | 35129 ft | 520 kts | 114° |
| 2026-05-06 14:30 | 50.98268 | 96.31303 | 35131 ft | 520 kts | 114° |
| 2026-05-06 14:31 | 50.95128 | 96.41631 | 35127 ft | 520 kts | 114° |
| 2026-05-06 14:31 | 50.91979 | 96.51947 | 35137 ft | 519 kts | 114° |
| 2026-05-06 14:32 | 50.88826 | 96.62235 | 35137 ft | 519 kts | 114° |
| 2026-05-06 14:32 | 50.85661 | 96.72517 | 35141 ft | 519 kts | 114° |
| 2026-05-06 14:33 | 50.82489 | 96.82777 | 35148 ft | 519 kts | 114° |
| 2026-05-06 14:33 | 50.79312 | 96.93012 | 35143 ft | 519 kts | 114° |
| 2026-05-06 14:34 | 50.76124 | 97.03240 | 35139 ft | 518 kts | 114° |
| 2026-05-06 14:34 | 50.72930 | 97.13443 | 35140 ft | 518 kts | 114° |
| 2026-05-06 14:35 | 50.69731 | 97.23620 | 35139 ft | 518 kts | 114° |
| 2026-05-06 14:35 | 50.66521 | 97.33790 | 35137 ft | 518 kts | 114° |
| 2026-05-06 14:36 | 50.63299 | 97.43958 | 35144 ft | 518 kts | 114° |
| 2026-05-06 14:36 | 50.60073 | 97.54096 | 35141 ft | 518 kts | 114° |
| 2026-05-06 14:37 | 50.56818 | 97.64283 | 35149 ft | 518 kts | 114° |
| 2026-05-06 14:37 | 50.53569 | 97.74408 | 35148 ft | 518 kts | 114° |
| 2026-05-06 14:38 | 50.50310 | 97.84528 | 35148 ft | 519 kts | 114° |
| 2026-05-06 14:38 | 50.47046 | 97.94618 | 35149 ft | 519 kts | 114° |
| 2026-05-06 14:39 | 50.43773 | 98.04699 | 35155 ft | 518 kts | 114° |
| 2026-05-06 14:39 | 50.40495 | 98.14755 | 35156 ft | 518 kts | 114° |
| 2026-05-06 14:40 | 50.37764 | 98.23106 | 35159 ft | 518 kts | 114° |
| 2026-05-06 14:40 | 50.34248 | 98.32953 | 35149 ft | 520 kts | 122° |
| 2026-05-06 14:41 | 50.30081 | 98.42217 | 35156 ft | 521 kts | 123° |
| 2026-05-06 14:41 | 50.25833 | 98.51518 | 35154 ft | 522 kts | 123° |
| 2026-05-06 14:42 | 50.21664 | 98.60722 | 35153 ft | 523 kts | 123° |
| 2026-05-06 14:42 | 50.17447 | 98.70069 | 35150 ft | 524 kts | 122° |
| 2026-05-06 14:43 | 50.13247 | 98.79356 | 35154 ft | 525 kts | 122° |
| 2026-05-06 14:43 | 50.09030 | 98.88639 | 35154 ft | 525 kts | 122° |
| 2026-05-06 14:44 | 50.04794 | 98.97925 | 35141 ft | 526 kts | 122° |
| 2026-05-06 14:45 | 49.98425 | 99.11829 | 35144 ft | 526 kts | 122° |
| 2026-05-06 14:45 | 49.94168 | 99.21083 | 35140 ft | 526 kts | 122° |
| 2026-05-06 14:46 | 49.89906 | 99.30313 | 35139 ft | 526 kts | 122° |
| 2026-05-06 14:46 | 49.85631 | 99.39540 | 35141 ft | 526 kts | 122° |
| 2026-05-06 14:47 | 49.81356 | 99.48736 | 35128 ft | 526 kts | 122° |
| 2026-05-06 14:47 | 49.77076 | 99.57911 | 35135 ft | 526 kts | 122° |
| 2026-05-06 14:48 | 49.72787 | 99.67074 | 35136 ft | 526 kts | 122° |
| 2026-05-06 14:48 | 49.68491 | 99.76223 | 35140 ft | 526 kts | 122° |
| 2026-05-06 14:49 | 49.64185 | 99.85363 | 35137 ft | 527 kts | 122° |
| 2026-05-06 14:49 | 49.59864 | 99.94501 | 35146 ft | 527 kts | 122° |
| 2026-05-06 14:50 | 49.55535 | 100.03609 | 35140 ft | 527 kts | 122° |
| 2026-05-06 14:50 | 49.51172 | 100.12764 | 35138 ft | 527 kts | 122° |
| 2026-05-06 14:51 | 49.46830 | 100.21847 | 35144 ft | 527 kts | 122° |
| 2026-05-06 14:51 | 49.42477 | 100.30923 | 35139 ft | 527 kts | 122° |
| 2026-05-06 14:52 | 49.38119 | 100.39980 | 35139 ft | 527 kts | 123° |
| 2026-05-06 14:52 | 49.33765 | 100.48999 | 35146 ft | 526 kts | 123° |
| 2026-05-06 14:53 | 49.29399 | 100.58013 | 35143 ft | 526 kts | 123° |
| 2026-05-06 14:53 | 49.25030 | 100.67002 | 35148 ft | 526 kts | 123° |
| 2026-05-06 14:54 | 49.20653 | 100.75977 | 35147 ft | 527 kts | 123° |
| 2026-05-06 14:54 | 49.16263 | 100.84947 | 35148 ft | 527 kts | 123° |
| 2026-05-06 14:55 | 49.11864 | 100.93906 | 35153 ft | 527 kts | 123° |
| 2026-05-06 14:55 | 49.07465 | 101.02835 | 35147 ft | 527 kts | 123° |
| 2026-05-06 14:56 | 49.03059 | 101.11748 | 35156 ft | 527 kts | 123° |
| 2026-05-06 14:56 | 49.00844 | 101.16220 | 35293 ft | 529 kts | 123° |
| 2026-05-06 14:56 | 48.98632 | 101.20676 | 35668 ft | 526 kts | 123° |
| 2026-05-06 14:56 | 48.96428 | 101.25107 | 36080 ft | 523 kts | 123° |
| 2026-05-06 14:57 | 48.94237 | 101.29506 | 36468 ft | 521 kts | 123° |
| 2026-05-06 14:57 | 48.92045 | 101.33902 | 36806 ft | 520 kts | 123° |